Time;durP1;ratioP1;P1;durP2;ratioP2;P2;SDS_P1;SDS_P2;PMS_P1;PMS_P2;Temp;Humidity;BMP_temperature;BMP_pressure;BME280_temperature;BME280_humidity;BME280_pressure;Samples;Min_cycle;Max_cycle;Signal;HPM_P1;HPM_P2
2022/06/05 00:01:44;;;;;;;3.72;2.38;;;;;;;19.27;100.00;100585.78;5039429;28;20843;-71
2022/06/05 00:04:29;;;;;;;6.85;2.83;;;;;;;19.30;100.00;100590.88;5042162;28;20128;-71
2022/06/05 00:07:00;;;;;;;6.95;2.75;;;;;;;19.29;100.00;100583.03;5049963;28;20027;-71
2022/06/05 00:09:38;;;;;;;4.63;2.88;;;;;;;19.26;100.00;100573.44;5056249;28;20036;-71
2022/06/05 00:12:10;;;;;;;6.15;3.00;;;;;;;19.16;100.00;100561.84;5057006;28;20035;-71
2022/06/05 00:14:39;;;;;;;4.38;2.60;;;;;;;19.20;100.00;100573.09;5052034;28;20076;-70
2022/06/05 00:17:12;;;;;;;4.88;2.92;;;;;;;19.17;100.00;100587.53;5051786;28;20035;-70
2022/06/05 00:19:39;;;;;;;3.88;2.83;;;;;;;19.10;100.00;100578.34;5040258;28;20024;-70
2022/06/05 00:22:05;;;;;;;4.28;3.55;;;;;;;19.15;100.00;100589.50;5042633;28;20890;-71
2022/06/05 00:24:32;;;;;;;5.10;3.05;;;;;;;19.00;100.00;100565.91;5041711;28;20132;-71
2022/06/05 00:27:00;;;;;;;5.53;2.83;;;;;;;18.70;100.00;100522.22;5063197;28;20458;-72
2022/06/05 00:29:29;;;;;;;7.03;3.00;;;;;;;19.10;100.00;100657.41;5057695;28;20984;-71
2022/06/05 00:32:18;;;;;;;5.82;3.53;;;;;;;19.10;100.00;100673.41;5050978;28;20035;-71
2022/06/05 00:34:44;;;;;;;7.22;4.15;;;;;;;18.97;100.00;100636.28;5039310;28;20094;-71
2022/06/05 00:37:23;;;;;;;4.53;3.70;;;;;;;19.18;100.00;100634.53;5048975;28;20125;-72
2022/06/05 00:39:51;;;;;;;7.13;3.80;;;;;;;19.22;100.00;100646.63;5050418;28;20024;-72
2022/06/05 00:42:20;;;;;;;7.82;4.20;;;;;;;19.13;100.00;100610.06;5045099;28;20034;-72
2022/06/05 00:45:09;;;;;;;5.50;3.42;;;;;;;19.15;100.00;100609.97;5045926;28;20940;-72
2022/06/05 00:47:35;;;;;;;5.70;3.60;;;;;;;19.08;100.00;100606.94;5045031;28;20043;-71
2022/06/05 00:50:09;;;;;;;5.22;3.83;;;;;;;18.99;100.00;100602.38;5048417;28;20030;-71
2022/06/05 00:52:36;;;;;;;6.30;3.95;;;;;;;18.95;100.00;100603.59;5048434;28;20135;-71
2022/06/05 00:55:03;;;;;;;6.38;4.10;;;;;;;18.77;100.00;100575.78;5064932;28;20147;-71
2022/06/05 00:57:31;;;;;;;6.85;4.78;;;;;;;18.63;100.00;100582.25;5042258;28;20554;-71
2022/06/05 00:59:57;;;;;;;6.78;4.32;;;;;;;18.41;100.00;100576.06;5048248;28;20971;-71
2022/06/05 01:02:23;;;;;;;8.45;4.55;;;;;;;17.92;100.00;100509.94;5049928;28;20085;-71
2022/06/05 01:04:50;;;;;;;5.50;3.90;;;;;;;18.18;100.00;100557.44;5044524;28;20044;-73
2022/06/05 01:07:16;;;;;;;8.07;4.25;;;;;;;18.11;100.00;100542.13;5045614;28;20020;-72
2022/06/05 01:09:42;;;;;;;5.93;4.25;;;;;;;17.95;100.00;100523.84;5034903;28;20024;-71
2022/06/05 01:12:13;;;;;;;6.45;3.88;;;;;;;17.89;100.00;100513.69;5046524;28;20911;-71
2022/06/05 01:14:38;;;;;;;8.32;4.55;;;;;;;17.93;100.00;100507.19;5044213;28;20904;-71
2022/06/05 01:17:48;;;;;;;5.35;4.07;;;;;;;17.83;100.00;100482.28;5042422;28;20024;-71
2022/06/05 01:21:03;;;;;;;7.03;5.10;;;;;;;17.78;100.00;100463.16;5015744;28;20048;-71
2022/06/05 01:23:38;;;;;;;6.05;4.63;;;;;;;17.73;100.00;100466.22;5036437;28;20040;-71
2022/06/05 01:26:05;;;;;;;5.90;4.43;;;;;;;17.72;100.00;100458.34;5067674;28;20085;-71
2022/06/05 01:28:33;;;;;;;6.32;4.28;;;;;;;17.62;100.00;100436.13;5055614;28;20020;-70
2022/06/05 01:31:07;;;;;;;5.93;4.30;;;;;;;17.78;100.00;100457.84;5048513;28;20035;-71
2022/06/05 01:33:33;;;;;;;6.50;4.43;;;;;;;17.79;100.00;100456.91;5047119;28;20038;-71
2022/06/05 01:36:22;;;;;;;6.88;4.60;;;;;;;17.86;100.00;100460.75;5038182;28;20282;-70
2022/06/05 01:38:55;;;;;;;6.45;4.28;;;;;;;17.91;100.00;100469.25;5045953;28;20134;-71
2022/06/05 01:41:30;;;;;;;7.20;4.32;;;;;;;17.88;100.00;100463.31;5047017;28;20096;-71
2022/06/05 01:43:58;;;;;;;9.23;5.38;;;;;;;17.95;100.00;100478.63;5046282;28;20086;-71
2022/06/05 01:46:34;;;;;;;6.85;5.00;;;;;;;17.91;100.00;100479.03;5050481;28;20108;-71
2022/06/05 01:49:09;;;;;;;6.35;4.15;;;;;;;17.97;100.00;100490.03;5046450;28;20879;-71
2022/06/05 01:51:41;;;;;;;9.80;4.97;;;;;;;17.82;100.00;100454.00;5044985;28;20031;-71
2022/06/05 01:54:11;;;;;;;6.05;4.93;;;;;;;17.89;100.00;100455.19;5052340;28;20032;-71
2022/06/05 01:56:40;;;;;;;6.40;4.40;;;;;;;17.95;100.00;100449.38;5056119;28;20027;-71
2022/06/05 01:59:24;;;;;;;5.90;4.32;;;;;;;18.04;100.00;100448.69;5053875;28;20122;-71
2022/06/05 02:01:53;;;;;;;6.68;4.93;;;;;;;18.07;100.00;100439.59;5040743;28;20038;-71
2022/06/05 02:04:26;;;;;;;6.30;4.78;;;;;;;18.16;100.00;100442.34;5044017;28;20020;-71
2022/06/05 02:07:07;;;;;;;4.90;3.90;;;;;;;18.22;100.00;100430.34;5043050;28;20899;-71
2022/06/05 02:09:45;;;;;;;6.60;5.20;;;;;;;18.22;100.00;100409.94;5049819;28;20032;-71
2022/06/05 02:12:11;;;;;;;8.65;4.95;;;;;;;18.35;100.00;100431.09;5040141;28;20036;-71
2022/06/05 02:14:37;;;;;;;6.32;5.00;;;;;;;18.38;100.00;100409.53;5047609;28;20038;-71
2022/06/05 02:17:04;;;;;;;8.38;4.70;;;;;;;18.21;100.00;100376.34;5056386;28;20020;-71
2022/06/05 02:19:30;;;;;;;7.80;5.03;;;;;;;18.34;100.00;100387.66;5062288;28;20147;-71
2022/06/05 02:22:00;;;;;;;7.95;5.03;;;;;;;18.23;100.00;100370.88;5062422;28;20486;-71
2022/06/05 02:24:26;;;;;;;6.88;5.15;;;;;;;18.29;100.00;100379.19;5044170;28;20076;-71
2022/06/05 02:26:51;;;;;;;5.93;4.65;;;;;;;18.32;100.00;100386.06;5042788;28;20093;-71
2022/06/05 02:29:20;;;;;;;6.35;4.72;;;;;;;18.36;100.00;100387.50;5047262;28;20039;-71
2022/06/05 02:32:01;;;;;;;7.68;4.78;;;;;;;18.24;100.00;100365.44;5054206;28;20048;-71
2022/06/05 02:35:09;;;;;;;7.85;4.90;;;;;;;18.28;100.00;100372.19;5063279;28;20069;-71
2022/06/05 02:37:35;;;;;;;8.27;4.72;;;;;;;18.21;100.00;100371.03;5060941;28;20032;-71
2022/06/05 02:40:22;;;;;;;6.15;4.55;;;;;;;18.22;100.00;100366.53;5052588;28;20035;-71
2022/06/05 02:42:50;;;;;;;7.20;5.50;;;;;;;18.19;100.00;100364.97;5050550;28;20140;-71
2022/06/05 02:45:33;;;;;;;9.05;5.20;;;;;;;18.12;100.00;100363.78;5044147;28;20034;-71
2022/06/05 02:48:13;;;;;;;7.03;5.47;;;;;;;18.09;100.00;100356.06;5042549;28;20028;-71
2022/06/05 02:50:47;;;;;;;6.43;4.55;;;;;;;18.00;100.00;100346.19;5041320;28;20024;-71
2022/06/05 02:53:13;;;;;;;6.03;4.68;;;;;;;18.07;100.00;100346.50;5042145;28;20955;-71
2022/06/05 02:55:39;;;;;;;6.82;5.53;;;;;;;17.95;100.00;100335.06;5067303;28;20097;-72
2022/06/05 02:58:04;;;;;;;6.22;5.45;;;;;;;18.03;100.00;100345.06;5051884;28;20471;-71
2022/06/05 03:00:32;;;;;;;8.90;5.45;;;;;;;18.02;100.00;100344.22;5042523;28;20147;-71
2022/06/05 03:05:42;;;;;;;8.88;5.72;;;;;;;17.86;100.00;100333.16;5046642;28;20104;-71
2022/06/05 03:08:10;;;;;;;7.72;5.18;;;;;;;17.83;100.00;100330.75;5051137;28;20037;-71
2022/06/05 03:10:36;;;;;;;6.35;4.57;;;;;;;17.86;100.00;100338.47;5050000;28;20887;-71
2022/06/05 03:13:01;;;;;;;7.43;5.60;;;;;;;17.80;100.00;100337.16;5056360;28;20085;-71
2022/06/05 03:15:27;;;;;;;6.47;4.70;;;;;;;17.86;100.00;100349.09;5061978;28;20028;-71
2022/06/05 03:17:53;;;;;;;6.40;5.20;;;;;;;17.80;100.00;100345.16;5064758;28;20031;-71
2022/06/05 03:20:18;;;;;;;7.50;5.75;;;;;;;17.77;100.00;100344.53;5056622;28;20831;-71
2022/06/05 03:22:44;;;;;;;8.18;5.93;;;;;;;17.76;100.00;100353.47;5049861;28;20035;-71
2022/06/05 03:25:15;;;;;;;6.93;5.15;;;;;;;17.77;100.00;100353.38;5050617;28;20042;-71
2022/06/05 03:27:40;;;;;;;9.40;5.32;;;;;;;17.75;100.00;100341.16;5060955;28;20042;-71
2022/06/05 03:30:06;;;;;;;7.65;5.93;;;;;;;17.66;100.00;100336.59;5065842;28;20234;-71
2022/06/05 03:32:32;;;;;;;8.43;5.97;;;;;;;17.60;100.00;100327.31;5054270;28;20889;-71
2022/06/05 03:34:57;;;;;;;7.30;5.75;;;;;;;17.64;100.00;100327.91;5059387;28;20040;-71
2022/06/05 03:37:22;;;;;;;7.72;5.53;;;;;;;17.57;100.00;100322.25;5062187;28;20034;-71
2022/06/05 03:39:48;;;;;;;7.85;5.50;;;;;;;17.38;100.00;100284.78;5067348;28;20894;-71
2022/06/05 03:42:14;;;;;;;5.53;4.60;;;;;;;17.61;100.00;100322.81;5065497;28;20024;-71
2022/06/05 03:44:42;;;;;;;6.30;5.03;;;;;;;17.60;100.00;100321.13;5047068;28;20126;-71
2022/06/05 03:47:08;;;;;;;7.30;5.72;;;;;;;17.68;100.00;100337.28;5057732;28;20024;-71
2022/06/05 03:49:34;;;;;;;6.97;5.20;;;;;;;17.65;100.00;100327.75;5043894;28;20028;-70
2022/06/05 03:52:01;;;;;;;8.35;4.85;;;;;;;17.45;100.00;100291.28;5066538;28;20152;-70
2022/06/05 03:54:26;;;;;;;6.32;5.25;;;;;;;17.54;100.00;100310.97;5062388;28;20025;-71
2022/06/05 03:56:52;;;;;;;8.07;4.85;;;;;;;17.60;100.00;100310.50;5056649;28;20020;-71
2022/06/05 03:59:17;;;;;;;9.85;6.43;;;;;;;17.67;100.00;100323.19;5068870;28;20087;-71
2022/06/05 04:01:42;;;;;;;6.75;5.45;;;;;;;17.54;100.00;100310.97;5060755;28;20055;-71
2022/06/05 04:04:08;;;;;;;7.97;5.70;;;;;;;17.63;100.00;100334.19;5049095;28;20043;-71
2022/06/05 04:06:33;;;;;;;6.50;5.57;;;;;;;17.44;100.00;100302.88;5067874;28;20497;-69
2022/06/05 04:09:02;;;;;;;6.53;5.00;;;;;;;17.52;100.00;100307.56;5052580;28;20086;-70
2022/06/05 04:11:29;;;;;;;9.98;5.80;;;;;;;17.58;100.00;100312.44;5073097;28;20028;-71
2022/06/05 04:13:55;;;;;;;5.88;4.88;;;;;;;17.56;100.00;100315.22;5055742;28;20131;-70
2022/06/05 04:16:23;;;;;;;7.53;5.78;;;;;;;17.36;100.00;100279.59;5067799;28;20398;-72
2022/06/05 04:18:49;;;;;;;8.82;5.80;;;;;;;17.57;100.00;100316.06;5059243;28;20054;-72
2022/06/05 04:21:24;;;;;;;9.85;5.50;;;;;;;17.50;100.00;100314.84;5050831;28;20066;-72
2022/06/05 04:23:50;;;;;;;8.38;5.32;;;;;;;17.51;100.00;100324.47;5044911;28;20037;-71
2022/06/05 04:26:18;;;;;;;7.20;5.93;;;;;;;17.49;100.00;100318.47;5020736;28;20960;-72
2022/06/05 04:28:44;;;;;;;7.50;5.50;;;;;;;17.51;100.00;100327.97;5049834;28;20056;-71
2022/06/05 04:31:27;;;;;;;6.45;4.45;;;;;;;17.44;100.00;100323.31;5040467;28;20036;-71
2022/06/05 04:33:55;;;;;;;6.47;5.63;;;;;;;17.46;100.00;100329.31;5047730;28;20329;-72
2022/06/05 04:36:21;;;;;;;8.27;5.28;;;;;;;17.49;100.00;100334.41;5047482;28;21372;-71
2022/06/05 04:38:47;;;;;;;9.73;5.55;;;;;;;17.41;100.00;100328.84;5048730;28;20127;-70
2022/06/05 04:41:14;;;;;;;8.55;5.88;;;;;;;17.48;100.00;100344.16;5049839;28;20034;-71
2022/06/05 04:43:40;;;;;;;8.82;5.75;;;;;;;17.07;100.00;100286.34;5040259;28;20038;-71
2022/06/05 04:46:06;;;;;;;8.82;5.72;;;;;;;17.44;100.00;100353.34;5047619;28;20954;-71
2022/06/05 04:48:31;;;;;;;8.00;5.45;;;;;;;17.41;100.00;100352.75;5036344;28;20976;-71
2022/06/05 04:50:57;;;;;;;9.27;6.07;;;;;;;17.47;100.00;100369.06;5049011;28;20082;-71
2022/06/05 04:53:22;;;;;;;6.68;5.45;;;;;;;17.49;100.00;100376.91;5049788;28;20125;-70
2022/06/05 04:55:48;;;;;;;6.85;5.75;;;;;;;17.42;100.00;100362.41;5042927;28;20920;-72
2022/06/05 04:58:13;;;;;;;11.35;6.30;;;;;;;17.48;100.00;100370.75;5049186;28;20040;-72
2022/06/05 05:00:39;;;;;;;8.40;5.78;;;;;;;17.18;100.00;100331.50;5048524;28;20862;-71
2022/06/05 05:03:05;;;;;;;6.88;5.68;;;;;;;17.43;100.00;100361.47;5042794;28;20020;-72
2022/06/05 05:05:30;;;;;;;9.27;6.68;;;;;;;17.46;100.00;100377.16;5038929;28;20040;-72
2022/06/05 05:07:56;;;;;;;7.25;5.85;;;;;;;17.50;100.00;100373.28;5046988;28;20055;-72
2022/06/05 05:10:21;;;;;;;7.80;6.28;;;;;;;17.38;100.00;100354.69;5041278;28;20043;-69
2022/06/05 05:12:47;;;;;;;6.35;5.57;;;;;;;17.46;100.00;100354.09;5049195;28;20891;-71
2022/06/05 05:15:12;;;;;;;8.30;6.25;;;;;;;17.44;100.00;100347.22;5063178;28;20087;-71
2022/06/05 05:17:37;;;;;;;8.23;5.90;;;;;;;17.42;100.00;100346.47;5047588;28;20092;-71
2022/06/05 05:20:03;;;;;;;8.65;6.30;;;;;;;17.47;100.00;100349.63;5050550;28;20032;-71
2022/06/05 05:22:29;;;;;;;7.88;6.00;;;;;;;17.42;100.00;100330.53;5059944;28;20040;-72
2022/06/05 05:24:54;;;;;;;8.88;5.88;;;;;;;17.33;100.00;100319.69;5048642;28;20032;-72
2022/06/05 05:27:20;;;;;;;8.77;6.82;;;;;;;17.56;100.00;100352.44;5047531;28;20254;-71
2022/06/05 05:29:45;;;;;;;10.35;6.13;;;;;;;17.64;100.00;100349.16;5047437;28;20860;-71
2022/06/05 05:32:11;;;;;;;10.32;6.32;;;;;;;17.67;100.00;100340.94;5040211;28;20834;-72
2022/06/05 05:34:37;;;;;;;13.90;6.78;;;;;;;17.70;100.00;100332.72;5045434;28;20844;-72
2022/06/05 05:37:03;;;;;;;8.50;5.82;;;;;;;17.75;100.00;100325.19;5046645;28;20372;-71
2022/06/05 05:42:14;;;;;;;6.55;5.57;;;;;;;17.77;100.00;100308.19;5041535;28;20047;-72
2022/06/05 05:44:48;;;;;;;6.75;5.22;;;;;;;17.84;100.00;100313.84;5025874;28;20770;-71
2022/06/05 05:47:17;;;;;;;11.88;6.03;;;;;;;17.83;100.00;100310.34;5036002;28;20020;-71
2022/06/05 05:49:42;;;;;;;10.25;6.25;;;;;;;17.86;100.00;100312.75;5044686;28;20135;-71
2022/06/05 05:52:09;;;;;;;7.78;6.20;;;;;;;17.88;100.00;100303.81;5044654;28;20039;-72
2022/06/05 05:54:35;;;;;;;7.45;5.80;;;;;;;17.83;100.00;100296.19;5033002;28;20086;-71
2022/06/05 05:57:00;;;;;;;7.90;5.72;;;;;;;17.79;100.00;100289.44;5042647;28;20053;-71
2022/06/05 05:59:26;;;;;;;6.50;5.68;;;;;;;17.98;100.00;100296.75;5079866;28;20025;-71
2022/06/05 06:01:51;;;;;;;7.78;5.75;;;;;;;17.96;100.00;100299.53;5050419;28;20020;-72
2022/06/05 06:04:16;;;;;;;9.25;6.68;;;;;;;18.05;100.00;100306.75;5041830;28;20035;-71
2022/06/05 06:06:44;;;;;;;7.22;5.35;;;;;;;18.11;100.00;100311.56;5051382;28;20028;-70
2022/06/05 06:09:10;;;;;;;9.45;6.35;;;;;;;18.14;100.00;100305.16;5049427;28;20065;-70
2022/06/05 06:11:36;;;;;;;7.30;5.97;;;;;;;18.16;100.00;100293.41;5061412;28;20022;-70
2022/06/05 06:14:01;;;;;;;7.95;5.82;;;;;;;18.12;100.00;100278.66;5044515;28;20028;-71
2022/06/05 06:16:27;;;;;;;11.75;5.55;;;;;;;18.20;100.00;100270.91;5060208;28;20033;-71
2022/06/05 06:18:53;;;;;;;6.53;5.20;;;;;;;18.35;100.00;100282.91;5057560;28;20024;-71
2022/06/05 06:21:19;;;;;;;7.05;5.70;;;;;;;18.42;100.00;100277.09;5061938;28;20208;-70
2022/06/05 06:23:44;;;;;;;9.82;5.63;;;;;;;18.47;100.00;100269.53;5044455;28;20032;-71
2022/06/05 06:26:10;;;;;;;7.25;5.70;;;;;;;18.54;100.00;100270.75;5040463;28;20834;-71
2022/06/05 06:28:36;;;;;;;7.28;5.95;;;;;;;18.56;100.00;100258.13;5038139;28;20024;-71
2022/06/05 06:31:07;;;;;;;7.72;5.43;;;;;;;18.59;100.00;100247.25;5049512;28;20033;-70
2022/06/05 06:33:32;;;;;;;7.05;5.28;;;;;;;18.69;100.00;100250.81;5053539;28;20085;-71
2022/06/05 06:36:03;;;;;;;8.85;6.65;;;;;;;18.70;100.00;100233.84;5041529;28;20020;-72
2022/06/05 06:38:28;;;;;;;7.43;5.70;;;;;;;18.74;100.00;100235.28;5044556;28;20028;-71
2022/06/05 06:41:02;;;;;;;8.10;5.80;;;;;;;18.92;100.00;100255.00;5045665;28;20135;-71
2022/06/05 06:43:28;;;;;;;7.43;5.47;;;;;;;18.61;100.00;100190.25;5044582;28;20032;-71
2022/06/05 06:45:53;;;;;;;8.20;5.85;;;;;;;18.99;100.00;100250.81;5041181;28;20043;-71
2022/06/05 06:48:19;;;;;;;6.97;5.72;;;;;;;18.71;100.00;100191.13;5044522;28;20021;-71
2022/06/05 06:50:45;;;;;;;6.47;4.85;;;;;;;19.10;100.00;100237.38;5044026;28;20039;-71
2022/06/05 06:53:10;;;;;;;10.40;6.60;;;;;;;19.10;100.00;100234.72;5038700;28;20454;-71
2022/06/05 06:55:36;;;;;;;7.47;5.78;;;;;;;19.06;100.00;100219.16;5041200;28;20024;-71
2022/06/05 06:58:02;;;;;;;5.43;4.88;;;;;;;19.36;100.00;100246.56;5042832;28;20053;-71
2022/06/05 07:00:28;;;;;;;9.70;6.00;;;;;;;19.15;100.00;100202.34;5037829;28;20020;-71
2022/06/05 07:02:53;;;;;;;5.55;4.40;;;;;;;19.39;100.00;100233.00;5038825;28;20031;-71
2022/06/05 07:05:18;;;;;;;7.07;5.72;;;;;;;19.52;100.00;100248.75;5039779;28;20058;-71
2022/06/05 07:07:44;;;;;;;6.32;5.00;;;;;;;19.36;100.00;100216.44;5041658;28;20029;-71
2022/06/05 07:10:09;;;;;;;10.15;5.93;;;;;;;19.58;100.00;100237.53;5039905;28;20036;-71
2022/06/05 07:12:35;;;;;;;7.22;5.07;;;;;;;19.65;100.00;100237.81;5037738;28;20178;-71
2022/06/05 07:15:02;;;;;;;7.60;5.97;;;;;;;19.74;100.00;100247.66;5035236;28;20093;-71
2022/06/05 07:17:28;;;;;;;5.57;5.03;;;;;;;19.76;100.00;100240.38;5047267;28;20024;-71
2022/06/05 07:19:53;;;;;;;6.95;4.70;;;;;;;19.80;100.00;100218.59;5048745;28;20127;-71
2022/06/05 07:22:19;;;;;;;6.30;4.50;;;;;;;19.59;100.00;100177.91;5037193;28;20025;-71
2022/06/05 07:24:44;;;;;;;6.15;4.85;;;;;;;20.00;100.00;100232.78;5047018;28;20883;-71
2022/06/05 07:27:09;;;;;;;7.07;5.03;;;;;;;19.89;100.00;100206.25;5047394;28;20098;-71
2022/06/05 07:29:35;;;;;;;11.80;5.22;;;;;;;20.03;100.00;100229.84;5047393;28;20140;-71
2022/06/05 07:32:00;;;;;;;6.32;5.00;;;;;;;20.03;100.00;100221.00;5046181;28;20110;-71
2022/06/05 07:34:26;;;;;;;6.72;4.82;;;;;;;19.85;100.00;100196.84;5066720;28;20030;-72
2022/06/05 07:36:51;;;;;;;9.48;5.40;;;;;;;20.12;100.00;100239.66;5050601;28;20024;-71
2022/06/05 07:39:16;;;;;;;6.90;5.28;;;;;;;20.06;100.00;100221.56;5047446;28;20163;-71
2022/06/05 07:41:42;;;;;;;6.90;4.63;;;;;;;20.05;100.00;100227.00;5045696;28;20154;-71
2022/06/05 07:44:07;;;;;;;7.60;4.97;;;;;;;20.03;100.00;100221.00;5046416;28;20915;-70
2022/06/05 07:46:35;;;;;;;8.43;5.22;;;;;;;19.95;100.00;100221.69;5044098;28;20016;-71
2022/06/05 07:49:00;;;;;;;7.85;5.68;;;;;;;19.96;100.00;100222.53;5045902;28;20268;-71
2022/06/05 07:54:28;;;;;;;7.00;4.75;;;;;;;19.87;100.00;100224.25;5036546;28;20656;-70
2022/06/05 07:56:59;;;;;;;8.05;4.80;;;;;;;19.70;100.00;100208.94;5043038;28;20071;-71
2022/06/05 07:59:26;;;;;;;11.98;5.40;;;;;;;19.76;100.00;100205.69;5041022;28;20054;-71
2022/06/05 08:01:51;;;;;;;5.43;4.35;;;;;;;19.70;100.00;100198.25;5031227;28;20454;-71
2022/06/05 08:04:17;;;;;;;7.88;5.47;;;;;;;19.73;100.00;100203.31;5044756;28;20024;-71
2022/06/05 08:06:42;;;;;;;7.20;5.40;;;;;;;19.73;100.00;100203.31;5060393;28;20031;-71
2022/06/05 08:09:08;;;;;;;8.88;5.60;;;;;;;19.61;100.00;100193.75;5042647;28;20143;-71
2022/06/05 08:11:34;;;;;;;6.35;5.38;;;;;;;19.34;100.00;100170.41;5046819;28;20038;-71
2022/06/05 08:14:00;;;;;;;6.95;5.40;;;;;;;19.51;100.00;100214.22;5042396;28;20089;-71
2022/06/05 08:16:26;;;;;;;7.20;5.22;;;;;;;19.37;100.00;100216.28;5045847;28;20032;-71
2022/06/05 08:18:52;;;;;;;7.90;6.22;;;;;;;19.27;100.00;100228.75;5048771;28;20032;-71
2022/06/05 08:21:21;;;;;;;6.82;6.13;;;;;;;19.19;100.00;100220.59;5049218;28;20035;-71
2022/06/05 08:23:47;;;;;;;6.82;6.00;;;;;;;19.05;100.00;100205.00;5044156;28;20024;-71
2022/06/05 08:26:13;;;;;;;9.35;7.15;;;;;;;19.01;100.00;100211.56;5043552;28;20063;-71
2022/06/05 08:28:38;;;;;;;11.93;6.22;;;;;;;18.90;100.00;100193.00;5047567;28;20127;-70
2022/06/05 08:31:04;;;;;;;11.93;6.03;;;;;;;18.96;100.00;100219.09;5047860;28;20031;-71
2022/06/05 08:33:29;;;;;;;11.30;6.45;;;;;;;18.96;100.00;100227.09;5049091;28;20028;-71
2022/06/05 08:35:54;;;;;;;7.70;6.90;;;;;;;19.01;100.00;100226.69;5046217;28;20024;-70
2022/06/05 08:41:33;;;;;;;11.25;7.57;;;;;;;19.00;100.00;100225.00;5049390;28;20070;-70
2022/06/05 08:44:11;;;;;;;8.10;6.75;;;;;;;18.97;100.00;100225.28;5047269;28;20024;-70
2022/06/05 08:46:41;;;;;;;9.60;6.35;;;;;;;18.91;100.00;100218.69;5041954;28;20070;-70
2022/06/05 08:49:14;;;;;;;7.50;6.38;;;;;;;18.79;100.00;100207.25;5028201;28;20047;-70
2022/06/05 08:52:01;;;;;;;7.63;6.65;;;;;;;18.80;100.00;100213.44;5052011;28;20059;-70
2022/06/05 08:54:37;;;;;;;7.93;6.38;;;;;;;18.84;100.00;100228.16;5046698;28;20287;-71
2022/06/05 08:57:21;;;;;;;7.57;5.57;;;;;;;18.66;100.00;100189.81;5051255;28;20800;-70
2022/06/05 08:59:53;;;;;;;12.45;6.80;;;;;;;18.81;100.00;100223.13;5043968;28;20058;-70
2022/06/05 09:02:26;;;;;;;8.73;6.82;;;;;;;18.68;100.00;100214.50;5039719;28;20108;-70
2022/06/05 09:05:08;;;;;;;9.40;6.80;;;;;;;18.77;100.00;100221.69;5046509;28;20846;-70
2022/06/05 09:07:42;;;;;;;10.32;6.82;;;;;;;18.73;100.00;100214.94;5044848;28;20032;-70
2022/06/05 09:10:15;;;;;;;7.78;6.53;;;;;;;18.71;100.00;100225.75;5046614;28;20036;-70
2022/06/05 09:12:47;;;;;;;9.20;6.85;;;;;;;18.63;100.00;100230.03;5048455;28;20040;-70
2022/06/05 09:15:28;;;;;;;8.45;7.03;;;;;;;18.43;100.00;100204.25;5047469;28;20035;-70
2022/06/05 09:17:59;;;;;;;9.63;6.95;;;;;;;18.47;100.00;100234.94;5049327;28;20028;-70
2022/06/05 09:20:48;;;;;;;9.65;7.85;;;;;;;18.31;100.00;100232.75;5047854;28;20052;-70
2022/06/05 09:23:44;;;;;;;9.52;8.02;;;;;;;18.16;100.00;100234.03;5045689;28;20120;-68
2022/06/05 09:26:16;;;;;;;13.13;8.90;;;;;;;18.07;100.00;100230.34;5033601;28;20029;-68
2022/06/05 09:29:00;;;;;;;10.93;9.80;;;;;;;17.97;100.00;100224.13;5060238;28;20036;-67
2022/06/05 09:31:35;;;;;;;14.48;9.27;;;;;;;17.85;100.00;100217.16;5041680;28;20951;-69
2022/06/05 09:34:10;;;;;;;12.27;11.00;;;;;;;17.80;100.00;100214.03;5039777;28;20388;-69
2022/06/05 09:36:38;;;;;;;13.48;11.75;;;;;;;17.60;100.00;100188.28;5039407;28;20106;-69
2022/06/05 09:39:27;;;;;;;14.23;12.30;;;;;;;17.75;100.00;100213.56;5050368;28;20487;-69
2022/06/05 09:42:30;;;;;;;14.43;12.48;;;;;;;17.75;100.00;100213.56;5045970;28;20031;-68
2022/06/05 09:45:27;;;;;;;14.85;12.35;;;;;;;17.70;100.00;100210.47;5044572;28;20020;-68
2022/06/05 09:48:17;;;;;;;15.88;13.77;;;;;;;17.41;100.00;100166.78;5036447;28;20020;-68
2022/06/05 09:50:43;;;;;;;14.68;13.18;;;;;;;17.49;100.00;100175.84;5030367;28;20032;-68
2022/06/05 09:53:17;;;;;;;16.25;14.65;;;;;;;17.63;100.00;100204.81;5053092;28;20038;-68
2022/06/05 09:56:13;;;;;;;16.30;14.57;;;;;;;17.56;100.00;100181.50;5049952;28;20035;-69
2022/06/05 09:59:17;;;;;;;18.38;16.55;;;;;;;17.69;100.00;100195.47;5046512;28;20036;-69
2022/06/05 10:01:54;;;;;;;18.77;16.98;;;;;;;17.66;100.00;100177.13;5038514;28;20039;-69
2022/06/05 10:04:20;;;;;;;21.70;19.35;;;;;;;17.70;100.00;100181.22;5039836;28;20334;-68
2022/06/05 10:06:50;;;;;;;22.48;19.75;;;;;;;17.72;100.00;100172.16;5040572;28;20051;-68
2022/06/05 10:09:20;;;;;;;22.02;19.38;;;;;;;17.81;100.00;100181.19;5037744;28;20317;-68
2022/06/05 10:11:54;;;;;;;23.90;21.70;;;;;;;17.86;100.00;100168.34;5037987;28;20028;-68
2022/06/05 10:14:35;;;;;;;24.15;21.85;;;;;;;17.92;100.00;100167.81;5038742;28;20058;-69
2022/06/05 10:17:38;;;;;;;25.05;22.25;;;;;;;17.97;100.00;100168.28;5046068;28;20031;-65
2022/06/05 10:20:12;;;;;;;23.92;21.65;;;;;;;17.99;100.00;100168.13;5041523;28;20228;-65
2022/06/05 10:22:45;;;;;;;22.65;20.33;;;;;;;18.03;100.00;100164.25;5040070;28;20848;-63
2022/06/05 10:25:27;;;;;;;24.60;22.45;;;;;;;18.07;100.00;100158.56;5034836;28;20036;-65
2022/06/05 10:28:04;;;;;;;25.88;23.45;;;;;;;18.06;100.00;100143.56;5040121;28;20254;-68
2022/06/05 10:30:34;;;;;;;23.77;21.25;;;;;;;18.13;100.00;100150.03;5038631;28;20043;-69
2022/06/05 10:33:12;;;;;;;23.48;21.05;;;;;;;18.15;100.00;100150.75;5043729;28;20074;-70
2022/06/05 10:35:52;;;;;;;25.05;22.50;;;;;;;17.93;100.00;100119.00;5036074;28;20030;-70
2022/06/05 10:38:38;;;;;;;25.75;23.05;;;;;;;18.14;100.00;100134.94;5041044;28;20132;-67
2022/06/05 10:41:39;;;;;;;23.42;21.08;;;;;;;18.19;100.00;100141.53;5045424;28;20048;-67
2022/06/05 10:44:31;;;;;;;26.83;24.27;;;;;;;18.18;100.00;100142.50;5036572;28;20059;-67
2022/06/05 10:47:06;;;;;;;31.02;27.88;;;;;;;18.26;100.00;100156.00;5040462;28;20031;-64
2022/06/05 10:50:11;;;;;;;31.05;28.08;;;;;;;18.30;100.00;100143.28;5037612;28;20926;-67
2022/06/05 10:52:56;;;;;;;30.38;27.60;;;;;;;17.78;100.00;100041.38;5044672;28;20762;-66
2022/06/05 10:55:34;;;;;;;31.70;28.60;;;;;;;18.42;100.00;100138.72;5039395;28;20029;-66
2022/06/05 10:58:03;;;;;;;30.58;27.73;;;;;;;18.47;100.00;100132.00;5032928;28;20024;-66
2022/06/05 11:00:34;;;;;;;34.45;31.27;;;;;;;18.43;100.00;100122.59;5042935;28;20286;-66
2022/06/05 11:03:13;;;;;;;33.55;30.55;;;;;;;18.58;100.00;100120.47;5044923;28;20109;-70
2022/06/05 11:05:53;;;;;;;34.88;31.77;;;;;;;18.58;100.00;100107.16;5027597;28;20017;-67
2022/06/05 11:08:34;;;;;;;34.75;31.77;;;;;;;18.47;100.00;100083.28;5031675;28;20153;-68
2022/06/05 11:14:23;;;;;;;36.83;33.33;;;;;;;18.93;100.00;100110.19;5034304;28;20085;-67
2022/06/05 11:17:00;;;;;;;37.53;33.97;;;;;;;19.07;100.00;100104.47;5032552;28;20086;-67
2022/06/05 11:19:43;;;;;;;32.28;29.35;;;;;;;19.13;100.00;100103.09;5044041;28;20100;-67
2022/06/05 11:22:11;;;;;;;35.53;32.20;;;;;;;19.22;100.00;100081.78;5038287;28;20036;-67
2022/06/05 11:24:48;;;;;;;35.05;31.65;;;;;;;19.31;100.00;100075.59;5038124;28;20020;-67
2022/06/05 11:28:01;;;;;;;36.45;32.78;;;;;;;19.52;100.00;100083.50;5037695;28;20036;-68
2022/06/05 11:31:05;;;;;;;28.38;25.75;;;;;;;19.72;100.00;100076.31;5014006;28;20151;-67
2022/06/05 11:33:32;;;;;;;29.02;26.02;;;;;;;19.83;100.00;100060.16;5017323;28;20056;-68
2022/06/05 11:36:22;;;;;;;23.95;21.65;;;;;;;20.02;100.00;100057.41;5037506;28;20098;-68
2022/06/05 11:39:07;;;;;;;24.38;21.88;;;;;;;20.32;100.00;100072.38;5034727;28;20837;-68
2022/06/05 11:41:41;;;;;;;23.45;21.25;;;;;;;20.56;100.00;100075.34;5044120;28;20096;-67
2022/06/05 11:44:29;;;;;;;23.30;21.08;;;;;;;20.58;100.00;100067.19;5044705;28;20061;-68
2022/06/05 11:47:07;;;;;;;21.92;19.73;;;;;;;20.52;100.00;100065.94;5036847;28;20032;-68
2022/06/05 11:49:51;;;;;;;22.80;20.40;;;;;;;20.47;100.00;100064.72;5046518;28;20031;-68